createdAt,value
2022-11-01T00:01:06.872Z,14.80
2022-11-01T00:03:33.479Z,14.80
2022-11-01T00:06:00.068Z,14.80
2022-11-01T00:08:26.698Z,14.80
2022-11-01T00:10:53.461Z,14.80
2022-11-01T00:13:20.158Z,14.70
2022-11-01T00:15:46.706Z,14.70
2022-11-01T00:18:13.315Z,14.70
2022-11-01T00:20:40.112Z,14.70
2022-11-01T00:23:06.714Z,14.70
2022-11-01T00:25:33.343Z,14.70
2022-11-01T00:28:00.383Z,14.70
2022-11-01T00:30:27.244Z,14.70
2022-11-01T00:32:56.218Z,14.70
2022-11-01T00:35:23.238Z,14.70
2022-11-01T00:37:50.293Z,14.70
2022-11-01T00:40:17.857Z,14.70
2022-11-01T00:42:44.449Z,14.70
2022-11-01T00:45:11.112Z,14.70
2022-11-01T00:47:37.666Z,14.60
2022-11-01T00:50:04.636Z,14.70
2022-11-01T00:52:31.242Z,14.70
2022-11-01T00:54:57.834Z,14.70
2022-11-01T00:57:24.609Z,14.70
2022-11-01T01:02:23.187Z,14.70
2022-11-01T01:04:50.402Z,14.70
2022-11-01T01:07:17.661Z,14.70
2022-11-01T01:09:44.811Z,14.70
2022-11-01T01:12:11.820Z,14.70
2022-11-01T01:14:38.468Z,14.70
2022-11-01T01:17:05.058Z,14.70
2022-11-01T01:19:31.694Z,14.80
2022-11-01T01:21:58.321Z,14.70
2022-11-01T01:24:25.024Z,14.80
2022-11-01T01:26:51.642Z,14.80
2022-11-01T01:29:18.402Z,14.80
2022-11-01T01:31:45.026Z,14.70
2022-11-01T01:34:11.868Z,14.70
2022-11-01T01:36:38.429Z,14.70
2022-11-01T01:39:05.002Z,14.80
2022-11-01T01:41:50.340Z,14.80
2022-11-01T01:44:41.599Z,14.80
2022-11-01T01:47:18.104Z,14.80
2022-11-01T01:49:46.129Z,14.80
2022-11-01T01:52:13.133Z,14.80
2022-11-01T01:54:39.821Z,14.80
2022-11-01T01:57:07.295Z,14.90
2022-11-01T01:59:34.001Z,14.90
2022-11-01T02:02:00.819Z,14.90
2022-11-01T02:04:36.435Z,14.90
2022-11-01T02:07:03.390Z,14.90
2022-11-01T02:09:31.708Z,14.90
2022-11-01T02:11:58.610Z,15.00
2022-11-01T02:14:26.107Z,15.00
2022-11-01T02:17:05.577Z,15.00
2022-11-01T02:19:47.274Z,15.10
2022-11-01T02:22:47.765Z,15.10
2022-11-01T02:25:48.076Z,15.20
2022-11-01T02:28:29.805Z,15.30
2022-11-01T02:31:30.570Z,15.30
2022-11-01T02:34:01.439Z,15.40
2022-11-01T02:36:39.227Z,15.40
2022-11-01T02:39:23.048Z,15.40
2022-11-01T02:42:27.333Z,15.50
2022-11-01T02:45:03.911Z,15.60
2022-11-01T02:47:32.390Z,15.60
2022-11-01T02:50:03.508Z,15.60
2022-11-01T02:52:32.936Z,15.60
2022-11-01T02:55:03.503Z,15.60
2022-11-01T02:57:41.177Z,15.60
2022-11-01T03:00:21.667Z,15.60
2022-11-01T03:02:53.767Z,15.70
2022-11-01T03:05:20.381Z,15.70
2022-11-01T03:07:51.420Z,15.80
2022-11-01T03:10:21.392Z,15.90
2022-11-01T03:13:07.532Z,15.90
2022-11-01T03:15:39.839Z,16.00
2022-11-01T03:18:15.980Z,16.00
2022-11-01T03:21:01.368Z,16.00
2022-11-01T03:23:41.368Z,16.00
2022-11-01T03:26:12.003Z,16.10
2022-11-01T03:28:49.163Z,16.20
2022-11-01T03:31:22.973Z,16.20
2022-11-01T03:33:54.544Z,16.30
2022-11-01T03:36:24.895Z,16.30
2022-11-01T03:38:59.535Z,16.30
2022-11-01T03:41:29.522Z,16.40
2022-11-01T03:43:56.381Z,16.40
2022-11-01T03:46:23.225Z,16.50
2022-11-01T03:48:50.277Z,16.50
2022-11-01T03:51:17.173Z,16.50
2022-11-01T03:53:43.833Z,16.50
2022-11-01T03:56:10.619Z,16.50
2022-11-01T03:58:46.278Z,16.50
2022-11-01T04:01:15.706Z,16.50
2022-11-01T04:03:43.734Z,16.50
2022-11-01T04:06:10.875Z,16.40
2022-11-01T04:08:40.588Z,16.30
2022-11-01T04:11:07.586Z,16.30
2022-11-01T04:13:34.229Z,16.20
2022-11-01T04:16:19.722Z,16.20
2022-11-01T04:19:05.168Z,16.20
2022-11-01T04:21:32.432Z,16.10
2022-11-01T04:23:59.056Z,16.00
2022-11-01T04:26:26.149Z,16.00
2022-11-01T04:28:59.045Z,15.90
2022-11-01T04:31:28.105Z,15.90
2022-11-01T04:33:56.368Z,15.90
2022-11-01T04:36:23.506Z,15.90
2022-11-01T04:38:55.666Z,15.80
2022-11-01T04:41:24.429Z,15.80
2022-11-01T04:43:54.595Z,15.80
2022-11-01T04:46:21.488Z,15.80
2022-11-01T04:48:48.804Z,15.70
2022-11-01T04:51:15.713Z,15.70
2022-11-01T04:53:42.382Z,15.70
2022-11-01T04:56:12.390Z,15.70
2022-11-01T04:58:43.097Z,15.60
2022-11-01T05:01:14.443Z,15.60
2022-11-01T05:03:41.532Z,15.60
2022-11-01T05:06:10.207Z,15.50
2022-11-01T05:08:37.166Z,15.50
2022-11-01T05:11:04.083Z,15.50
2022-11-01T05:13:30.665Z,15.40
2022-11-01T05:16:19.077Z,15.40
2022-11-01T05:18:44.000Z,15.40
2022-11-01T05:21:11.213Z,15.30
2022-11-01T05:23:37.783Z,15.30
2022-11-01T05:26:04.729Z,15.30
2022-11-01T05:28:31.319Z,15.20
2022-11-01T05:30:58.702Z,15.20
2022-11-01T05:33:25.306Z,15.10
2022-11-01T05:35:51.890Z,15.10
2022-11-01T05:38:18.446Z,15.10
2022-11-01T05:40:45.069Z,15.00
2022-11-01T05:43:11.946Z,15.00
2022-11-01T05:45:38.533Z,15.00
2022-11-01T05:48:05.629Z,14.90
2022-11-01T05:50:32.582Z,14.90
2022-11-01T05:53:10.165Z,14.90
2022-11-01T05:55:37.443Z,14.90
2022-11-01T05:58:04.370Z,14.80
2022-11-01T06:00:31.458Z,14.80
2022-11-01T06:02:59.107Z,14.70
2022-11-01T06:05:27.274Z,14.70
2022-11-01T06:07:53.883Z,14.70
2022-11-01T06:10:20.448Z,14.70
2022-11-01T06:12:47.031Z,14.70
2022-11-01T06:15:13.786Z,14.70
2022-11-01T06:17:40.333Z,14.70
2022-11-01T06:20:07.301Z,14.70
2022-11-01T06:22:36.123Z,14.60
2022-11-01T06:25:03.197Z,14.60
2022-11-01T06:27:29.788Z,14.60
2022-11-01T06:29:56.346Z,14.60
2022-11-01T06:32:22.936Z,14.50
2022-11-01T06:34:49.494Z,14.50
2022-11-01T06:37:16.051Z,14.50
2022-11-01T06:39:42.603Z,14.50
2022-11-01T06:42:09.990Z,14.50
2022-11-01T06:44:36.651Z,14.50
2022-11-01T06:47:03.702Z,14.40
2022-11-01T06:49:30.480Z,14.40
2022-11-01T06:51:57.481Z,14.40
2022-11-01T06:54:24.163Z,14.30
2022-11-01T06:56:50.723Z,14.30
2022-11-01T06:59:17.459Z,14.20
2022-11-01T07:01:44.376Z,14.20
2022-11-01T07:06:42.663Z,14.20
2022-11-01T07:09:10.175Z,14.20
2022-11-01T07:11:37.082Z,14.10
2022-11-01T07:14:03.674Z,14.10
2022-11-01T07:16:31.159Z,14.10
2022-11-01T07:18:57.782Z,14.10
2022-11-01T07:21:24.697Z,14.10
2022-11-01T07:23:53.597Z,14.10
2022-11-01T07:26:21.023Z,14.10
2022-11-01T07:28:47.581Z,14.10
2022-11-01T07:31:14.402Z,14.10
2022-11-01T07:33:40.962Z,14.00
2022-11-01T07:36:08.157Z,14.10
2022-11-01T07:38:34.706Z,14.00
2022-11-01T07:41:03.980Z,14.00
2022-11-01T07:43:30.614Z,14.00
2022-11-01T07:46:00.748Z,14.00
2022-11-01T07:48:27.535Z,14.00
2022-11-01T07:50:57.176Z,14.00
2022-11-01T07:53:24.273Z,14.00
2022-11-01T07:55:51.375Z,14.00
2022-11-01T07:58:18.133Z,14.00
2022-11-01T08:00:45.331Z,14.00
2022-11-01T08:03:14.897Z,14.00
2022-11-01T08:05:41.975Z,14.00
2022-11-01T08:08:09.377Z,14.00
2022-11-01T08:10:36.697Z,14.10
2022-11-01T08:13:14.438Z,14.00
2022-11-01T08:15:41.236Z,14.00
2022-11-01T08:18:07.863Z,14.10
2022-11-01T08:20:34.624Z,14.10
2022-11-01T08:23:01.550Z,14.10
2022-11-01T08:25:28.651Z,14.20
2022-11-01T08:27:55.224Z,14.30
2022-11-01T08:30:22.650Z,14.30
2022-11-01T08:32:49.242Z,14.30
2022-11-01T08:35:15.985Z,14.30
2022-11-01T08:37:50.163Z,14.30
2022-11-01T08:40:17.566Z,14.40
2022-11-01T08:42:44.218Z,14.50
2022-11-01T08:45:11.905Z,14.50
2022-11-01T08:47:39.464Z,14.60
2022-11-01T08:50:10.264Z,14.60
2022-11-01T08:52:37.947Z,14.60
2022-11-01T08:55:05.029Z,14.60
2022-11-01T08:57:31.707Z,14.70
2022-11-01T08:59:58.281Z,14.80
2022-11-01T09:02:25.363Z,14.90
2022-11-01T09:04:52.558Z,15.20
2022-11-01T09:07:19.127Z,15.80
2022-11-01T09:09:46.425Z,16.20
2022-11-01T09:12:14.700Z,16.50
2022-11-01T09:14:41.977Z,16.80
2022-11-01T09:17:08.736Z,16.60
2022-11-01T09:19:35.439Z,16.20
2022-11-01T09:22:02.157Z,15.90
2022-11-01T09:24:28.741Z,15.60
2022-11-01T09:26:55.391Z,15.40
2022-11-01T09:29:22.141Z,15.20
2022-11-01T09:31:53.229Z,15.10
2022-11-01T09:34:21.185Z,15.10
2022-11-01T09:36:48.838Z,15.20
2022-11-01T09:39:17.633Z,15.60
2022-11-01T09:41:49.405Z,16.30
2022-11-01T09:44:34.045Z,16.90
2022-11-01T09:47:21.219Z,17.10
2022-11-01T09:49:52.761Z,17.00
2022-11-01T09:52:22.334Z,16.90
2022-11-01T09:54:49.805Z,16.80
2022-11-01T09:57:28.458Z,16.60
2022-11-01T10:00:16.101Z,16.50
2022-11-01T10:03:01.629Z,16.40
2022-11-01T10:06:02.497Z,16.50
2022-11-01T10:08:52.116Z,16.50
2022-11-01T10:11:58.611Z,16.60
2022-11-01T10:14:54.924Z,16.80
2022-11-01T10:17:39.454Z,16.90
2022-11-01T10:20:11.281Z,16.70
2022-11-01T10:22:40.486Z,16.70
2022-11-01T10:25:36.054Z,16.70
2022-11-01T10:28:34.019Z,16.60
2022-11-01T10:31:11.131Z,16.60
2022-11-01T10:33:58.024Z,16.50
2022-11-01T10:36:31.038Z,16.40
2022-11-01T10:42:12.793Z,16.50
2022-11-01T10:44:57.628Z,16.40
2022-11-01T10:47:25.472Z,16.40
2022-11-01T10:50:07.571Z,16.40
2022-11-01T10:52:52.938Z,16.40
2022-11-01T10:55:35.162Z,16.50
2022-11-01T10:58:07.390Z,16.50
2022-11-01T11:00:37.078Z,16.50
2022-11-01T11:03:22.243Z,16.50
2022-11-01T11:05:50.622Z,16.50
2022-11-01T11:08:21.996Z,16.50
2022-11-01T11:10:49.050Z,16.50
2022-11-01T11:13:20.658Z,16.50
2022-11-01T11:15:52.530Z,16.40
2022-11-01T11:18:25.122Z,16.40
2022-11-01T11:21:04.664Z,16.50
2022-11-01T11:23:34.691Z,16.60
2022-11-01T11:26:07.997Z,16.60
2022-11-01T11:28:42.505Z,16.70
2022-11-01T11:31:24.166Z,16.80
2022-11-01T11:34:04.098Z,17.00
2022-11-01T11:36:43.786Z,17.10
2022-11-01T11:39:31.892Z,17.30
2022-11-01T11:42:20.220Z,17.60
2022-11-01T11:44:52.130Z,17.90
2022-11-01T11:47:28.170Z,18.20
2022-11-01T11:49:57.920Z,18.50
2022-11-01T11:52:36.844Z,18.80
2022-11-01T11:55:05.671Z,19.00
2022-11-01T11:57:32.327Z,19.00
2022-11-01T12:00:01.092Z,19.00
2022-11-01T12:02:34.467Z,19.20
2022-11-01T12:05:23.257Z,19.30
2022-11-01T12:07:54.859Z,19.40
2022-11-01T12:10:47.236Z,19.60
2022-11-01T12:13:36.976Z,19.80
2022-11-01T12:16:17.491Z,19.90
2022-11-01T12:18:48.453Z,20.00
2022-11-01T12:21:22.075Z,19.90
2022-11-01T12:23:52.238Z,19.90
2022-11-01T12:26:22.551Z,19.80
2022-11-01T12:28:58.483Z,19.80
2022-11-01T12:31:31.033Z,19.70
2022-11-01T12:34:21.339Z,19.60
2022-11-01T12:36:58.125Z,19.40
2022-11-01T12:39:34.315Z,19.20
2022-11-01T12:42:04.472Z,19.10
2022-11-01T12:44:33.816Z,18.90
2022-11-01T12:47:14.528Z,18.80
2022-11-01T12:50:14.105Z,18.70
2022-11-01T12:52:51.130Z,18.60
2022-11-01T12:55:34.631Z,18.60
2022-11-01T12:58:03.343Z,18.50
2022-11-01T13:00:48.590Z,18.40
2022-11-01T13:03:44.548Z,18.30
2022-11-01T13:06:29.206Z,18.20
2022-11-01T13:09:04.946Z,18.20
2022-11-01T13:11:59.433Z,18.20
2022-11-01T13:14:55.413Z,18.10
2022-11-01T13:17:30.894Z,18.00
2022-11-01T13:20:14.521Z,18.00
2022-11-01T13:22:48.860Z,18.00
2022-11-01T13:25:40.422Z,17.90
2022-11-01T13:28:22.006Z,17.90
2022-11-01T13:31:02.379Z,17.90
2022-11-01T13:33:46.391Z,17.80
2022-11-01T13:36:26.061Z,17.80
2022-11-01T13:39:20.624Z,17.70
2022-11-01T13:41:59.207Z,17.70
2022-11-01T13:44:29.451Z,17.70
2022-11-01T13:47:27.790Z,17.70
2022-11-01T13:50:16.442Z,17.70
2022-11-01T13:52:56.003Z,17.70
2022-11-01T13:55:32.431Z,17.60
2022-11-01T13:57:59.631Z,17.60
2022-11-01T14:00:39.406Z,17.50
2022-11-01T14:03:20.159Z,17.40
2022-11-01T14:05:48.420Z,17.40
2022-11-01T14:08:27.986Z,17.40
2022-11-01T14:10:55.634Z,17.40
2022-11-01T14:13:37.807Z,17.30
2022-11-01T14:16:20.391Z,17.30
2022-11-01T14:19:05.207Z,17.30
2022-11-01T14:21:46.181Z,17.30
2022-11-01T14:24:23.421Z,17.20
2022-11-01T14:27:19.196Z,17.20
2022-11-01T14:29:50.293Z,17.20
2022-11-01T14:32:18.661Z,17.10
2022-11-01T14:34:47.329Z,17.10
2022-11-01T14:37:18.771Z,17.10
2022-11-01T14:39:58.181Z,17.10
2022-11-01T14:42:38.423Z,17.10
2022-11-01T14:45:21.833Z,17.10
2022-11-01T14:47:48.575Z,17.00
2022-11-01T14:50:42.164Z,16.90
2022-11-01T14:53:21.797Z,16.90
2022-11-01T14:55:48.398Z,16.90
2022-11-01T14:58:22.090Z,16.80
2022-11-01T15:00:51.709Z,16.80
2022-11-01T15:03:19.413Z,16.80
2022-11-01T15:05:49.318Z,16.80
2022-11-01T15:08:32.011Z,16.80
2022-11-01T15:11:03.125Z,16.70
2022-11-01T15:13:33.594Z,16.70
2022-11-01T15:16:05.105Z,16.70
2022-11-01T15:18:31.947Z,16.70
2022-11-01T15:20:59.716Z,16.70
2022-11-01T15:23:36.928Z,16.60
2022-11-01T15:26:09.753Z,16.60
2022-11-01T15:28:41.802Z,16.60
2022-11-01T15:31:09.998Z,16.50
2022-11-01T15:33:37.288Z,16.50
2022-11-01T15:36:18.875Z,16.40
2022-11-01T15:38:57.478Z,16.40
2022-11-01T15:41:28.156Z,16.40
2022-11-01T15:43:57.542Z,16.40
2022-11-01T15:46:28.492Z,16.30
2022-11-01T15:48:58.121Z,16.30
2022-11-01T15:51:27.878Z,16.30
2022-11-01T15:54:06.279Z,16.30
2022-11-01T15:56:44.272Z,16.30
2022-11-01T15:59:21.629Z,16.20
2022-11-01T16:01:49.433Z,16.20
2022-11-01T16:04:19.669Z,16.20
2022-11-01T16:06:51.201Z,16.20
2022-11-01T16:09:28.678Z,16.20
2022-11-01T16:11:58.573Z,16.10
2022-11-01T16:14:33.583Z,16.20
2022-11-01T16:17:20.456Z,16.20
2022-11-01T16:19:51.289Z,16.10
2022-11-01T16:22:41.348Z,16.10
2022-11-01T16:25:10.705Z,16.10
2022-11-01T16:28:07.305Z,16.10
2022-11-01T16:30:53.516Z,16.00
2022-11-01T16:33:22.166Z,16.00
2022-11-01T16:35:51.507Z,15.90
2022-11-01T16:38:28.019Z,15.90
2022-11-01T16:41:13.658Z,15.80
2022-11-01T16:43:41.842Z,15.80
2022-11-01T16:46:08.727Z,15.80
2022-11-01T16:48:51.662Z,15.80
2022-11-01T16:51:19.249Z,15.70
2022-11-01T16:53:45.794Z,15.80
2022-11-01T16:56:37.383Z,15.70
2022-11-01T16:59:35.795Z,15.80
2022-11-01T17:02:15.981Z,15.70
2022-11-01T17:04:43.436Z,15.80
2022-11-01T17:07:12.870Z,15.80
2022-11-01T17:09:39.833Z,15.80
2022-11-01T17:12:07.697Z,15.80
2022-11-01T17:14:37.790Z,15.80
2022-11-01T17:17:10.249Z,15.80
2022-11-01T17:19:40.674Z,15.80
2022-11-01T17:22:14.732Z,15.80
2022-11-01T17:24:41.390Z,15.80
2022-11-01T17:27:08.799Z,15.80
2022-11-01T17:29:35.359Z,15.80
2022-11-01T17:32:03.989Z,15.80
2022-11-01T17:34:30.663Z,15.80
2022-11-01T17:36:57.590Z,15.80
2022-11-01T17:39:27.658Z,15.80
2022-11-01T17:41:54.781Z,15.80
2022-11-01T17:44:21.341Z,15.80
2022-11-01T17:46:47.893Z,15.80
2022-11-01T17:49:16.053Z,15.90
2022-11-01T17:51:43.692Z,15.90
2022-11-01T17:54:10.313Z,15.80
2022-11-01T17:56:37.012Z,15.80
2022-11-01T17:59:03.823Z,15.80
2022-11-01T18:01:30.513Z,15.90
2022-11-01T18:03:57.169Z,15.80
2022-11-01T18:06:24.163Z,15.80
2022-11-01T18:08:52.107Z,15.80
2022-11-01T18:11:41.683Z,15.80
2022-11-01T18:14:47.645Z,15.80
2022-11-01T18:17:46.650Z,15.80
2022-11-01T18:20:21.519Z,15.70
2022-11-01T18:22:58.110Z,15.70
2022-11-01T18:25:42.000Z,15.70
2022-11-01T18:28:13.850Z,15.70
2022-11-01T18:30:43.686Z,15.70
2022-11-01T18:33:29.797Z,15.60
2022-11-01T18:36:04.542Z,15.60
2022-11-01T18:38:39.946Z,15.60
2022-11-01T18:41:13.384Z,15.60
2022-11-01T18:43:40.241Z,15.60
2022-11-01T18:46:25.146Z,15.60
2022-11-01T18:49:00.457Z,15.50
2022-11-01T18:51:30.066Z,15.50
2022-11-01T18:54:14.143Z,15.50
2022-11-01T18:56:47.930Z,15.50
2022-11-01T18:59:25.903Z,15.50
2022-11-01T19:02:10.584Z,15.50
2022-11-01T19:04:40.878Z,15.50
2022-11-01T19:07:15.100Z,15.50
2022-11-01T19:09:49.847Z,15.50
2022-11-01T19:12:27.803Z,15.50
2022-11-01T19:15:13.198Z,15.50
2022-11-01T19:17:44.895Z,15.50
2022-11-01T19:20:15.392Z,15.50
2022-11-01T19:22:45.776Z,15.50
2022-11-01T19:25:24.797Z,15.50
2022-11-01T19:27:55.167Z,15.50
2022-11-01T19:30:28.536Z,15.50
2022-11-01T19:32:57.948Z,15.50
2022-11-01T19:35:24.607Z,15.50
2022-11-01T19:37:54.937Z,15.50
2022-11-01T19:40:27.824Z,15.50
2022-11-01T19:42:57.264Z,15.50
2022-11-01T19:45:32.569Z,15.50
2022-11-01T19:48:01.559Z,15.40
2022-11-01T19:50:42.870Z,15.40
2022-11-01T19:53:29.708Z,15.30
2022-11-01T19:56:09.041Z,15.10
2022-11-01T19:58:44.344Z,15.10
2022-11-01T20:01:17.108Z,15.00
2022-11-01T20:03:51.036Z,14.90
2022-11-01T20:06:38.974Z,14.80
2022-11-01T20:09:25.207Z,14.80
2022-11-01T20:11:52.734Z,14.80
2022-11-01T20:14:19.526Z,14.70
2022-11-01T20:16:46.890Z,14.70
2022-11-01T20:19:16.528Z,14.70
2022-11-01T20:21:44.532Z,14.60
2022-11-01T20:24:11.414Z,14.60
2022-11-01T20:26:38.247Z,14.60
2022-11-01T20:29:04.841Z,14.60
2022-11-01T20:31:36.826Z,14.60
2022-11-01T20:34:03.861Z,14.60
2022-11-01T20:36:32.163Z,14.60
2022-11-01T20:39:00.452Z,14.60
2022-11-01T20:41:27.427Z,14.60
2022-11-01T20:43:54.158Z,14.60
2022-11-01T20:46:20.776Z,14.50
2022-11-01T20:48:47.393Z,14.50
2022-11-01T20:51:14.187Z,14.50
2022-11-01T20:53:41.354Z,14.40
2022-11-01T20:56:08.898Z,14.30
2022-11-01T20:58:41.285Z,14.30
2022-11-01T21:01:19.265Z,14.20
2022-11-01T21:03:46.490Z,14.10
2022-11-01T21:06:16.629Z,14.00
2022-11-01T21:08:47.000Z,13.90
2022-11-01T21:11:24.002Z,13.90
2022-11-01T21:13:52.275Z,13.90
2022-11-01T21:16:30.913Z,13.80
2022-11-01T21:19:02.160Z,13.80
2022-11-01T21:21:30.778Z,13.70
2022-11-01T21:23:58.462Z,13.70
2022-11-01T21:26:34.790Z,13.70
2022-11-01T21:29:22.413Z,13.60
2022-11-01T21:31:49.034Z,13.60
2022-11-01T21:34:24.764Z,13.60
2022-11-01T21:36:52.043Z,13.60
2022-11-01T21:39:25.294Z,13.50
2022-11-01T21:41:55.658Z,13.50
2022-11-01T21:44:26.389Z,13.50
2022-11-01T21:47:13.936Z,13.50
2022-11-01T21:49:40.755Z,13.50
2022-11-01T21:54:41.951Z,13.50
2022-11-01T21:57:10.656Z,13.50
2022-11-01T21:59:37.571Z,13.40
2022-11-01T22:02:05.625Z,13.40
2022-11-01T22:04:33.067Z,13.40
2022-11-01T22:07:03.667Z,13.40
2022-11-01T22:09:31.425Z,13.40
2022-11-01T22:11:58.894Z,13.40
2022-11-01T22:14:25.720Z,13.30
2022-11-01T22:16:52.463Z,13.30
2022-11-01T22:19:19.018Z,13.30
2022-11-01T22:24:12.504Z,13.20
2022-11-01T22:26:39.050Z,13.20
2022-11-01T22:29:05.913Z,13.20
2022-11-01T22:31:32.497Z,13.20
2022-11-01T22:33:59.074Z,13.10
2022-11-01T22:36:27.784Z,13.10
2022-11-01T22:38:56.749Z,13.10
2022-11-01T22:41:31.809Z,13.00
2022-11-01T22:44:05.621Z,13.00
2022-11-01T22:46:58.252Z,12.90
2022-11-01T22:49:40.335Z,13.00
2022-11-01T22:52:22.017Z,13.00
2022-11-01T22:54:51.817Z,13.00
2022-11-01T22:57:21.777Z,12.90
2022-11-01T22:59:52.232Z,12.90
2022-11-01T23:02:34.310Z,12.90
2022-11-01T23:05:07.034Z,12.90
2022-11-01T23:07:37.787Z,12.90
2022-11-01T23:10:07.055Z,12.90
2022-11-01T23:12:55.209Z,12.90
2022-11-01T23:15:32.357Z,12.90
2022-11-01T23:18:22.193Z,12.80
2022-11-01T23:21:09.342Z,12.90
2022-11-01T23:23:37.788Z,12.90
2022-11-01T23:26:04.512Z,12.90
2022-11-01T23:28:35.030Z,12.90
2022-11-01T23:31:04.579Z,12.90
2022-11-01T23:33:50.056Z,12.80
2022-11-01T23:36:21.106Z,12.90
2022-11-01T23:38:49.123Z,12.90
2022-11-01T23:41:44.078Z,12.90
2022-11-01T23:44:38.920Z,12.90
2022-11-01T23:47:26.007Z,12.90
2022-11-01T23:50:00.810Z,12.90
2022-11-01T23:52:43.229Z,12.90
2022-11-01T23:55:19.194Z,12.90
2022-11-01T23:57:46.048Z,12.90
